Time;durP1;ratioP1;P1;durP2;ratioP2;P2;SDS_P1;SDS_P2;PMS_P1;PMS_P2;Temp;Humidity;BMP_temperature;BMP_pressure;BME280_temperature;BME280_humidity;BME280_pressure;Samples;Min_cycle;Max_cycle;Signal;HPM_P1;HPM_P2
2023/06/16 00:00:00;;;;;;;9.93;9.00;;;;;;;;;;5093632;28;20820;-58
2023/06/16 00:02:29;;;;;;;9.80;8.90;;;;;;;;;;5093716;28;20446;-59
2023/06/16 00:04:57;;;;;;;9.30;8.60;;;;;;;;;;5093155;28;20526;-58
2023/06/16 00:07:24;;;;;;;9.90;8.90;;;;;;;;;;5093568;28;20449;-58
2023/06/16 00:09:51;;;;;;;8.80;8.10;;;;;;;;;;5093556;28;20454;-58
2023/06/16 00:12:18;;;;;;;9.70;8.90;;;;;;;;;;5093450;28;20453;-58
2023/06/16 00:14:45;;;;;;;9.20;8.50;;;;;;;;;;5093308;28;20864;-58
2023/06/16 00:17:13;;;;;;;10.63;9.83;;;;;;;;;;5093123;28;20537;-58
2023/06/16 00:19:40;;;;;;;10.37;9.57;;;;;;;;;;5093434;28;20511;-58
2023/06/16 00:22:10;;;;;;;8.90;8.20;;;;;;;;;;5093569;28;20446;-58
2023/06/16 00:24:37;;;;;;;11.90;10.90;;;;;;;;;;5093461;28;20473;-58
2023/06/16 00:27:04;;;;;;;11.87;10.23;;;;;;;;;;5092978;28;20457;-58
2023/06/16 00:29:31;;;;;;;9.47;8.70;;;;;;;;;;5093128;28;20804;-59
2023/06/16 00:31:58;;;;;;;9.90;9.20;;;;;;;;;;5093013;28;20453;-58
2023/06/16 00:34:25;;;;;;;10.43;9.50;;;;;;;;;;5093160;28;20457;-59
2023/06/16 00:36:52;;;;;;;9.63;8.83;;;;;;;;;;5092987;28;20448;-58
2023/06/16 00:39:20;;;;;;;11.47;10.30;;;;;;;;;;5093065;28;20839;-58
2023/06/16 00:41:47;;;;;;;10.63;9.73;;;;;;;;;;5092940;28;20453;-58
2023/06/16 00:44:14;;;;;;;10.23;9.33;;;;;;;;;;5093018;28;20456;-58
2023/06/16 00:46:41;;;;;;;10.30;9.37;;;;;;;;;;5093039;28;20782;-58
2023/06/16 00:49:08;;;;;;;11.30;10.30;;;;;;;;;;5093029;28;20452;-58
2023/06/16 00:51:35;;;;;;;10.30;8.70;;;;;;;;;;5092982;28;20450;-58
2023/06/16 00:54:03;;;;;;;9.30;8.53;;;;;;;;;;5092793;28;20453;-58
2023/06/16 00:56:32;;;;;;;10.00;9.30;;;;;;;;;;5092882;28;20518;-58
2023/06/16 00:58:59;;;;;;;9.73;8.40;;;;;;;;;;5092680;28;20445;-58
2023/06/16 01:01:28;;;;;;;9.07;8.20;;;;;;;;;;5092880;28;20859;-58
2023/06/16 01:03:55;;;;;;;11.50;10.50;;;;;;;;;;5092700;28;20809;-58
2023/06/16 01:06:28;;;;;;;9.97;8.40;;;;;;;;;;5092949;28;20484;-58
2023/06/16 01:08:58;;;;;;;9.20;7.50;;;;;;;;;;5092768;28;20535;-58
2023/06/16 01:11:29;;;;;;;8.23;7.53;;;;;;;;;;5092531;28;20458;-58
2023/06/16 01:14:03;;;;;;;9.80;7.30;;;;;;;;;;5092871;28;20457;-58
2023/06/16 01:16:31;;;;;;;8.47;7.00;;;;;;;;;;5092715;28;20456;-60
2023/06/16 01:19:02;;;;;;;8.37;7.70;;;;;;;;;;5092647;28;20874;-58
2023/06/16 01:21:32;;;;;;;8.30;7.63;;;;;;;;;;5092492;28;20940;-58
2023/06/16 01:24:02;;;;;;;7.43;6.83;;;;;;;;;;5092543;28;20499;-58
2023/06/16 01:26:31;;;;;;;7.70;7.10;;;;;;;;;;5092810;28;20488;-58
2023/06/16 01:29:00;;;;;;;7.93;7.27;;;;;;;;;;5092558;28;20449;-59
2023/06/16 01:31:28;;;;;;;7.00;6.50;;;;;;;;;;5092463;28;20458;-58
2023/06/16 01:33:55;;;;;;;10.03;6.87;;;;;;;;;;5092400;28;20449;-58
2023/06/16 01:36:22;;;;;;;7.80;7.20;;;;;;;;;;5092310;28;20457;-58
2023/06/16 01:38:50;;;;;;;8.00;7.27;;;;;;;;;;5092858;28;20850;-58
2023/06/16 01:41:19;;;;;;;8.23;7.43;;;;;;;;;;5096423;28;20790;-58
2023/06/16 01:43:48;;;;;;;8.60;7.47;;;;;;;;;;5096297;28;20535;-58
2023/06/16 01:46:15;;;;;;;7.80;7.10;;;;;;;;;;5096092;28;20512;-58
2023/06/16 01:48:42;;;;;;;7.40;6.70;;;;;;;;;;5096271;28;20449;-58
2023/06/16 01:51:09;;;;;;;8.37;7.20;;;;;;;;;;5095947;28;20450;-58
2023/06/16 01:53:36;;;;;;;8.30;7.53;;;;;;;;;;5096182;28;20450;-59
2023/06/16 01:56:03;;;;;;;7.50;6.97;;;;;;;;;;5095735;28;20473;-58
2023/06/16 01:58:31;;;;;;;8.20;7.33;;;;;;;;;;5095848;28;20439;-58
2023/06/16 02:01:00;;;;;;;8.53;7.67;;;;;;;;;;5095890;28;21013;-58
2023/06/16 02:03:29;;;;;;;9.00;8.20;;;;;;;;;;5095735;28;20487;-58
2023/06/16 02:05:56;;;;;;;6.80;6.30;;;;;;;;;;5095809;28;20484;-58
2023/06/16 02:08:26;;;;;;;8.30;7.70;;;;;;;;;;5096114;28;20545;-58
2023/06/16 02:10:53;;;;;;;7.90;7.30;;;;;;;;;;5095868;28;20457;-58
2023/06/16 02:13:20;;;;;;;8.30;7.60;;;;;;;;;;5095673;28;20478;-58
2023/06/16 02:15:48;;;;;;;10.30;8.13;;;;;;;;;;5095509;28;20446;-59
2023/06/16 02:18:15;;;;;;;7.60;6.90;;;;;;;;;;5095779;28;20544;-58
2023/06/16 02:20:42;;;;;;;7.87;7.30;;;;;;;;;;5095648;28;20449;-59
2023/06/16 02:23:09;;;;;;;8.70;8.00;;;;;;;;;;5095537;28;20450;-58
2023/06/16 02:25:35;;;;;;;8.43;7.63;;;;;;;;;;5095945;28;20476;-58
2023/06/16 02:28:02;;;;;;;7.90;7.20;;;;;;;;;;5095391;28;20953;-58
2023/06/16 02:30:29;;;;;;;7.87;7.07;;;;;;;;;;5095222;28;20453;-58
2023/06/16 02:32:58;;;;;;;7.70;7.10;;;;;;;;;;5095431;28;20540;-58
2023/06/16 02:35:25;;;;;;;7.83;7.27;;;;;;;;;;5095376;28;20452;-58
2023/06/16 02:37:53;;;;;;;8.23;7.53;;;;;;;;;;5095162;28;20449;-58
2023/06/16 02:40:20;;;;;;;7.50;6.90;;;;;;;;;;5094975;28;20461;-58
2023/06/16 02:42:48;;;;;;;8.13;7.40;;;;;;;;;;5095011;28;20497;-58
2023/06/16 02:45:15;;;;;;;8.57;7.90;;;;;;;;;;5094822;28;20485;-58
2023/06/16 02:47:42;;;;;;;10.27;6.97;;;;;;;;;;5095148;28;20817;-58
2023/06/16 02:50:10;;;;;;;7.80;7.10;;;;;;;;;;5095032;28;20449;-58
2023/06/16 02:52:41;;;;;;;7.73;7.03;;;;;;;;;;5094969;28;20448;-58
2023/06/16 02:55:08;;;;;;;8.90;6.17;;;;;;;;;;5094815;28;20481;-58
2023/06/16 02:57:35;;;;;;;7.70;7.10;;;;;;;;;;5094651;28;20464;-58
2023/06/16 03:00:03;;;;;;;5.97;5.57;;;;;;;;;;5094979;28;20815;-58
2023/06/16 03:02:30;;;;;;;7.60;6.90;;;;;;;;;;5094778;28;20453;-58
2023/06/16 03:04:57;;;;;;;6.70;6.20;;;;;;;;;;5094581;28;20446;-58
2023/06/16 03:07:31;;;;;;;9.67;6.33;;;;;;;;;;5094529;28;20484;-58
2023/06/16 03:09:59;;;;;;;6.07;5.67;;;;;;;;;;5094552;28;20452;-59
2023/06/16 03:12:25;;;;;;;6.40;5.90;;;;;;;;;;5094375;28;20929;-58
2023/06/16 03:14:52;;;;;;;6.07;5.57;;;;;;;;;;5094557;28;20448;-59
2023/06/16 03:17:20;;;;;;;6.90;5.70;;;;;;;;;;5094375;28;20901;-58
2023/06/16 03:19:47;;;;;;;6.37;5.80;;;;;;;;;;5094371;28;20499;-58
2023/06/16 03:22:14;;;;;;;6.87;6.23;;;;;;;;;;5094377;28;20802;-58
2023/06/16 03:24:43;;;;;;;5.50;5.10;;;;;;;;;;5094363;28;20456;-58
2023/06/16 03:27:10;;;;;;;8.43;5.50;;;;;;;;;;5094245;28;20488;-58
2023/06/16 03:29:38;;;;;;;8.27;6.23;;;;;;;;;;5094250;28;20448;-58
2023/06/16 03:32:05;;;;;;;6.20;5.80;;;;;;;;;;5094440;28;20486;-58
2023/06/16 03:34:32;;;;;;;6.80;6.30;;;;;;;;;;5094002;28;20459;-58
2023/06/16 03:36:59;;;;;;;7.13;5.90;;;;;;;;;;5094004;28;20493;-58
2023/06/16 03:39:26;;;;;;;8.50;6.80;;;;;;;;;;5093936;28;20572;-58
2023/06/16 03:41:55;;;;;;;8.70;6.60;;;;;;;;;;5094052;28;20808;-59
2023/06/16 03:44:22;;;;;;;9.80;8.10;;;;;;;;;;5093907;28;20453;-58
2023/06/16 03:46:49;;;;;;;7.90;7.23;;;;;;;;;;5093848;28;20536;-58
2023/06/16 03:49:16;;;;;;;10.00;7.30;;;;;;;;;;5093755;28;20456;-58
2023/06/16 03:51:43;;;;;;;8.20;7.50;;;;;;;;;;5093745;28;20551;-59
2023/06/16 03:54:11;;;;;;;8.93;8.03;;;;;;;;;;5094003;28;20448;-59
2023/06/16 03:56:38;;;;;;;9.30;8.50;;;;;;;;;;5093556;28;20492;-58
2023/06/16 03:59:08;;;;;;;9.53;8.77;;;;;;;;;;5093799;28;20650;-58
2023/06/16 04:01:36;;;;;;;9.00;8.20;;;;;;;;;;5093314;28;20816;-58
2023/06/16 04:04:03;;;;;;;9.40;8.70;;;;;;;;;;5093529;28;20507;-58
2023/06/16 04:06:32;;;;;;;9.70;8.33;;;;;;;;;;5093166;28;20477;-58
2023/06/16 04:08:59;;;;;;;9.60;8.13;;;;;;;;;;5093571;28;20968;-59
2023/06/16 04:11:26;;;;;;;10.63;8.93;;;;;;;;;;5093547;28;20453;-58
2023/06/16 04:13:53;;;;;;;10.40;9.40;;;;;;;;;;5093448;28;20446;-58
2023/06/16 04:16:21;;;;;;;9.23;8.27;;;;;;;;;;5093260;28;20478;-58
2023/06/16 04:18:48;;;;;;;9.77;8.87;;;;;;;;;;5093169;28;20446;-58
2023/06/16 04:21:15;;;;;;;11.77;8.63;;;;;;;;;;5093463;28;20473;-58
2023/06/16 04:23:42;;;;;;;9.13;8.37;;;;;;;;;;5093327;28;20448;-58
2023/06/16 04:26:09;;;;;;;8.57;7.87;;;;;;;;;;5093171;28;20572;-58
2023/06/16 04:28:38;;;;;;;10.77;9.13;;;;;;;;;;5093181;28;20454;-58
2023/06/16 04:31:06;;;;;;;9.00;8.20;;;;;;;;;;5093115;28;20461;-58
2023/06/16 04:33:36;;;;;;;9.03;8.13;;;;;;;;;;5092983;28;20450;-58
2023/06/16 04:36:03;;;;;;;8.70;7.80;;;;;;;;;;5093229;28;20804;-59
2023/06/16 04:38:31;;;;;;;8.70;8.00;;;;;;;;;;5093046;28;20449;-58
2023/06/16 04:40:58;;;;;;;10.33;8.03;;;;;;;;;;5093065;28;20451;-58
2023/06/16 04:43:25;;;;;;;9.53;8.63;;;;;;;;;;5092989;28;20491;-58
2023/06/16 04:45:52;;;;;;;7.30;6.70;;;;;;;;;;5092549;28;20479;-59
2023/06/16 04:48:19;;;;;;;8.20;7.37;;;;;;;;;;5092867;28;20975;-58
2023/06/16 04:50:48;;;;;;;8.83;8.03;;;;;;;;;;5093056;28;20460;-58
2023/06/16 04:53:14;;;;;;;10.63;9.73;;;;;;;;;;5093002;28;20543;-58
2023/06/16 04:55:41;;;;;;;9.67;7.70;;;;;;;;;;5092887;28;20491;-58
2023/06/16 04:58:08;;;;;;;7.57;6.77;;;;;;;;;;5092758;28;20547;-58
2023/06/16 05:00:35;;;;;;;8.13;7.40;;;;;;;;;;5092718;28;20460;-58
2023/06/16 05:03:02;;;;;;;11.50;8.60;;;;;;;;;;5092801;28;20544;-58
2023/06/16 05:05:29;;;;;;;8.30;7.50;;;;;;;;;;5092692;28;20448;-58
2023/06/16 05:07:57;;;;;;;8.70;7.90;;;;;;;;;;5092735;28;20482;-58
2023/06/16 05:10:24;;;;;;;8.43;7.63;;;;;;;;;;5092674;28;20965;-58
2023/06/16 05:12:51;;;;;;;9.77;8.80;;;;;;;;;;5092543;28;20451;-59
2023/06/16 05:15:18;;;;;;;8.73;7.90;;;;;;;;;;5095400;28;20452;-58
2023/06/16 05:17:45;;;;;;;8.30;7.60;;;;;;;;;;5096790;28;20445;-59
2023/06/16 05:20:12;;;;;;;8.33;7.50;;;;;;;;;;5096617;28;20477;-58
2023/06/16 05:22:39;;;;;;;8.43;7.80;;;;;;;;;;5096581;28;20534;-58
2023/06/16 05:25:08;;;;;;;9.60;8.80;;;;;;;;;;5096587;28;20454;-58
2023/06/16 05:27:35;;;;;;;7.93;7.23;;;;;;;;;;5096214;28;20839;-58
2023/06/16 05:30:02;;;;;;;9.00;8.20;;;;;;;;;;5096539;28;20445;-58
2023/06/16 05:32:29;;;;;;;7.97;7.27;;;;;;;;;;5096670;28;20504;-58
2023/06/16 05:34:56;;;;;;;7.77;7.17;;;;;;;;;;5096315;28;20448;-58
2023/06/16 05:37:23;;;;;;;9.43;8.53;;;;;;;;;;5096282;28;20798;-58
2023/06/16 05:39:51;;;;;;;9.60;8.63;;;;;;;;;;5096183;28;20448;-59
2023/06/16 05:42:19;;;;;;;9.00;8.20;;;;;;;;;;5096099;28;20496;-58
2023/06/16 05:44:46;;;;;;;9.33;8.43;;;;;;;;;;5096264;28;20844;-58
2023/06/16 05:47:13;;;;;;;9.20;8.40;;;;;;;;;;5095897;28;21012;-59
2023/06/16 05:49:40;;;;;;;8.37;7.67;;;;;;;;;;5095992;28;20453;-58
2023/06/16 05:52:07;;;;;;;7.23;6.50;;;;;;;;;;5096022;28;20477;-58
2023/06/16 05:54:35;;;;;;;9.73;7.47;;;;;;;;;;5095696;28;20455;-59
2023/06/16 05:57:02;;;;;;;11.93;8.60;;;;;;;;;;5096011;28;20464;-58
2023/06/16 05:59:30;;;;;;;8.17;6.90;;;;;;;;;;5096183;28;20537;-58
2023/06/16 06:01:57;;;;;;;9.07;8.33;;;;;;;;;;5095883;28;20546;-58
2023/06/16 06:04:28;;;;;;;8.20;7.40;;;;;;;;;;5095722;28;20532;-58
2023/06/16 06:06:55;;;;;;;8.53;7.43;;;;;;;;;;5095548;28;20480;-58
2023/06/16 06:09:22;;;;;;;8.30;7.60;;;;;;;;;;5095375;28;20939;-58
2023/06/16 06:11:49;;;;;;;8.83;8.03;;;;;;;;;;5095683;28;20537;-58
2023/06/16 06:14:16;;;;;;;8.30;7.60;;;;;;;;;;5095665;28;20548;-58
2023/06/16 06:16:44;;;;;;;8.73;7.93;;;;;;;;;;5095522;28;20543;-58
2023/06/16 06:19:11;;;;;;;9.67;8.87;;;;;;;;;;5095519;28;20556;-58
2023/06/16 06:21:39;;;;;;;7.90;7.30;;;;;;;;;;5095202;28;20553;-59
2023/06/16 06:24:06;;;;;;;7.47;6.87;;;;;;;;;;5095618;28;20456;-59
2023/06/16 06:26:33;;;;;;;7.77;7.10;;;;;;;;;;5094988;28;20477;-58
2023/06/16 06:29:00;;;;;;;7.83;7.13;;;;;;;;;;5095357;28;20449;-59
2023/06/16 06:31:26;;;;;;;7.73;7.20;;;;;;;;;;5095303;28;20875;-58
2023/06/16 06:33:55;;;;;;;8.20;7.60;;;;;;;;;;5095040;28;20450;-58
2023/06/16 06:36:22;;;;;;;7.97;6.87;;;;;;;;;;5094926;28;20460;-58
2023/06/16 06:38:49;;;;;;;7.23;6.73;;;;;;;;;;5094928;28;20949;-58
2023/06/16 06:41:17;;;;;;;7.93;7.23;;;;;;;;;;5095174;28;20450;-58
2023/06/16 06:43:44;;;;;;;7.00;6.40;;;;;;;;;;5095160;28;20940;-58
2023/06/16 06:46:11;;;;;;;6.90;5.47;;;;;;;;;;5094926;28;20456;-58
2023/06/16 06:48:38;;;;;;;7.30;6.20;;;;;;;;;;5095027;28;20547;-58
2023/06/16 06:51:06;;;;;;;6.53;5.83;;;;;;;;;;5094886;28;20454;-58
2023/06/16 06:53:33;;;;;;;7.73;6.17;;;;;;;;;;5095144;28;20457;-60
2023/06/16 06:56:00;;;;;;;6.17;5.70;;;;;;;;;;5094489;28;20999;-59
2023/06/16 06:58:27;;;;;;;7.20;6.60;;;;;;;;;;5094692;28;20522;-58
2023/06/16 07:00:54;;;;;;;5.73;5.30;;;;;;;;;;5094689;28;20847;-58
2023/06/16 07:03:21;;;;;;;6.30;5.70;;;;;;;;;;5094568;28;20486;-59
2023/06/16 07:05:48;;;;;;;7.00;6.50;;;;;;;;;;5094558;28;20454;-58
2023/06/16 07:08:16;;;;;;;6.27;5.80;;;;;;;;;;5094594;28;20527;-58
2023/06/16 07:10:43;;;;;;;6.50;6.00;;;;;;;;;;5094871;28;20542;-58
2023/06/16 07:13:10;;;;;;;6.40;6.00;;;;;;;;;;5094631;28;20816;-58
2023/06/16 07:15:37;;;;;;;6.30;5.70;;;;;;;;;;5094488;28;20488;-58
2023/06/16 07:18:04;;;;;;;6.20;5.80;;;;;;;;;;5094231;28;20544;-58
2023/06/16 07:20:31;;;;;;;5.80;5.20;;;;;;;;;;5094488;28;20467;-58
2023/06/16 07:22:59;;;;;;;5.90;5.23;;;;;;;;;;5094276;28;20535;-58
2023/06/16 07:25:28;;;;;;;5.53;5.13;;;;;;;;;;5094525;28;20885;-58
2023/06/16 07:27:55;;;;;;;5.80;5.40;;;;;;;;;;5094032;28;20491;-58
2023/06/16 07:30:22;;;;;;;7.27;5.60;;;;;;;;;;5094158;28;20540;-59
2023/06/16 07:32:50;;;;;;;5.50;5.00;;;;;;;;;;5094050;28;20506;-58
2023/06/16 07:35:17;;;;;;;5.20;4.90;;;;;;;;;;5094148;28;20453;-58
2023/06/16 07:37:43;;;;;;;8.50;7.70;;;;;;;;;;5093414;28;20530;-58
2023/06/16 07:40:13;;;;;;;6.73;6.23;;;;;;;;;;5094030;28;20539;-58
2023/06/16 07:42:42;;;;;;;7.20;5.23;;;;;;;;;;5094162;28;20458;-58
2023/06/16 07:45:10;;;;;;;5.13;4.47;;;;;;;;;;5093838;28;20476;-59
2023/06/16 07:47:37;;;;;;;3.87;3.67;;;;;;;;;;5093886;28;20485;-58
2023/06/16 07:50:04;;;;;;;4.60;4.20;;;;;;;;;;5093912;28;20536;-59
2023/06/16 07:52:31;;;;;;;4.40;4.10;;;;;;;;;;5093857;28;20468;-58
2023/06/16 07:54:57;;;;;;;3.57;3.37;;;;;;;;;;5093582;28;20510;-58
2023/06/16 07:57:24;;;;;;;3.10;2.90;;;;;;;;;;5093652;28;20540;-58
2023/06/16 07:59:53;;;;;;;2.50;2.30;;;;;;;;;;5093519;28;20456;-59
2023/06/16 08:02:19;;;;;;;3.00;2.50;;;;;;;;;;5093728;28;20529;-59
2023/06/16 08:04:46;;;;;;;3.10;2.90;;;;;;;;;;5093766;28;20476;-58
2023/06/16 08:07:13;;;;;;;5.37;2.93;;;;;;;;;;5093494;28;20975;-58
2023/06/16 08:09:40;;;;;;;3.43;3.23;;;;;;;;;;5093698;28;20475;-58
2023/06/16 08:12:09;;;;;;;3.33;3.13;;;;;;;;;;5093268;28;20449;-58
2023/06/16 08:14:36;;;;;;;2.50;2.30;;;;;;;;;;5093923;28;20474;-58
2023/06/16 08:17:04;;;;;;;2.60;2.50;;;;;;;;;;5093370;28;20652;-58
2023/06/16 08:19:31;;;;;;;2.80;2.60;;;;;;;;;;5093390;28;20825;-59
2023/06/16 08:21:59;;;;;;;2.73;2.63;;;;;;;;;;5093380;28;20545;-58
2023/06/16 08:24:26;;;;;;;2.40;2.30;;;;;;;;;;5093239;28;20464;-58
2023/06/16 08:26:53;;;;;;;3.30;3.10;;;;;;;;;;5092954;28;20839;-58
2023/06/16 08:29:20;;;;;;;3.37;3.07;;;;;;;;;;5093411;28;20754;-58
2023/06/16 08:31:47;;;;;;;3.80;3.60;;;;;;;;;;5093321;28;20446;-58
2023/06/16 08:34:16;;;;;;;3.80;3.60;;;;;;;;;;5093209;28;20561;-58
2023/06/16 08:36:43;;;;;;;3.90;3.70;;;;;;;;;;5093056;28;20450;-58
2023/06/16 08:39:10;;;;;;;3.77;3.47;;;;;;;;;;5093027;28;20447;-59
2023/06/16 08:41:37;;;;;;;4.00;3.80;;;;;;;;;;5093278;28;20459;-58
2023/06/16 08:44:05;;;;;;;4.87;4.47;;;;;;;;;;5093090;28;20450;-59
2023/06/16 08:46:32;;;;;;;4.37;4.00;;;;;;;;;;5092951;28;20439;-59
2023/06/16 08:48:59;;;;;;;6.20;5.60;;;;;;;;;;5092815;28;20463;-58
2023/06/16 08:51:28;;;;;;;5.20;4.73;;;;;;;;;;5093177;28;20585;-58
2023/06/16 08:54:00;;;;;;;5.10;4.70;;;;;;;;;;5092706;28;20533;-58
2023/06/16 08:56:28;;;;;;;5.73;5.03;;;;;;;;;;5092842;28;20484;-58
2023/06/16 08:58:57;;;;;;;4.80;4.40;;;;;;;;;;5092871;28;20548;-58
2023/06/16 09:01:24;;;;;;;5.70;5.30;;;;;;;;;;5092850;28;20461;-57
2023/06/16 09:03:52;;;;;;;4.90;4.50;;;;;;;;;;5093111;28;20456;-57
2023/06/16 09:06:19;;;;;;;5.27;4.97;;;;;;;;;;5092663;28;20802;-58
2023/06/16 09:08:47;;;;;;;5.10;4.70;;;;;;;;;;5092833;28;20479;-57
2023/06/16 09:11:14;;;;;;;4.77;4.47;;;;;;;;;;5092837;28;20546;-59
2023/06/16 09:13:43;;;;;;;4.40;4.10;;;;;;;;;;5092814;28;20456;-57
2023/06/16 09:16:10;;;;;;;4.00;3.80;;;;;;;;;;5092753;28;20463;-58
2023/06/16 09:18:40;;;;;;;4.30;4.00;;;;;;;;;;5092722;28;20806;-57
2023/06/16 09:21:08;;;;;;;4.47;4.07;;;;;;;;;;5092560;28;20546;-57
2023/06/16 09:23:35;;;;;;;4.43;4.13;;;;;;;;;;5092754;28;20454;-57
2023/06/16 09:26:11;;;;;;;6.17;4.70;;;;;;;;;;5092664;28;20953;-59
2023/06/16 09:28:39;;;;;;;5.53;4.47;;;;;;;;;;5092561;28;20494;-57
2023/06/16 09:31:06;;;;;;;4.30;4.00;;;;;;;;;;5092556;28;20534;-57
2023/06/16 09:33:33;;;;;;;5.00;4.47;;;;;;;;;;5092508;28;20446;-57
2023/06/16 09:36:00;;;;;;;5.20;3.97;;;;;;;;;;5092665;28;20808;-59
2023/06/16 09:38:28;;;;;;;4.27;4.07;;;;;;;;;;5092606;28;20447;-57
2023/06/16 09:40:55;;;;;;;4.10;3.87;;;;;;;;;;5092521;28;20537;-57
2023/06/16 09:43:26;;;;;;;5.10;4.70;;;;;;;;;;5092576;28;20889;-59
2023/06/16 09:45:57;;;;;;;4.70;4.40;;;;;;;;;;5092283;28;20533;-60
2023/06/16 09:48:26;;;;;;;5.03;3.70;;;;;;;;;;5092417;28;20494;-57
2023/06/16 09:50:54;;;;;;;3.90;2.83;;;;;;;;;;5092433;28;20465;-58
2023/06/16 09:53:23;;;;;;;4.03;2.97;;;;;;;;;;5092492;28;20547;-58
2023/06/16 09:55:51;;;;;;;2.63;2.43;;;;;;;;;;5092373;28;20824;-58
2023/06/16 09:58:18;;;;;;;4.03;2.70;;;;;;;;;;5092188;28;20464;-59
2023/06/16 10:00:47;;;;;;;3.23;3.03;;;;;;;;;;5093932;28;20937;-58
2023/06/16 10:03:14;;;;;;;3.73;3.37;;;;;;;;;;5095934;28;20865;-58
2023/06/16 10:05:42;;;;;;;3.47;3.17;;;;;;;;;;5096149;28;20881;-58
2023/06/16 10:08:09;;;;;;;3.50;3.10;;;;;;;;;;5095765;28;20522;-58
2023/06/16 10:10:38;;;;;;;4.33;2.90;;;;;;;;;;5095656;28;20446;-58
2023/06/16 10:13:07;;;;;;;3.33;3.10;;;;;;;;;;5095696;28;20533;-58
2023/06/16 10:15:36;;;;;;;3.47;3.27;;;;;;;;;;5095872;28;20476;-58
2023/06/16 10:18:05;;;;;;;3.80;3.43;;;;;;;;;;5095734;28;20544;-57
2023/06/16 10:20:33;;;;;;;3.03;2.80;;;;;;;;;;5095631;28;20453;-58
2023/06/16 10:23:00;;;;;;;4.03;3.73;;;;;;;;;;5095652;28;20466;-57
2023/06/16 10:25:27;;;;;;;4.40;4.10;;;;;;;;;;5095332;28;20461;-58
2023/06/16 10:27:55;;;;;;;4.20;3.90;;;;;;;;;;5095532;28;20554;-58
2023/06/16 10:30:23;;;;;;;4.70;4.30;;;;;;;;;;5095536;28;20794;-58
2023/06/16 10:32:50;;;;;;;7.63;4.00;;;;;;;;;;5095431;28;20443;-58
2023/06/16 10:35:20;;;;;;;4.03;3.83;;;;;;;;;;5095385;28;20824;-58
2023/06/16 10:37:50;;;;;;;4.10;3.87;;;;;;;;;;5095195;28;20451;-58
2023/06/16 10:40:19;;;;;;;4.10;3.83;;;;;;;;;;5095231;28;20537;-58
2023/06/16 10:42:47;;;;;;;4.53;4.13;;;;;;;;;;5095288;28;20793;-58
2023/06/16 10:45:24;;;;;;;5.00;4.50;;;;;;;;;;5095265;28;20804;-57
2023/06/16 10:47:57;;;;;;;5.00;4.50;;;;;;;;;;5095021;28;20536;-58
2023/06/16 10:50:32;;;;;;;4.00;3.70;;;;;;;;;;5094972;28;20537;-58
2023/06/16 10:53:08;;;;;;;4.17;3.93;;;;;;;;;;5095177;28;20475;-58
2023/06/16 10:55:36;;;;;;;6.00;4.03;;;;;;;;;;5094952;28;20477;-58
2023/06/16 10:58:36;;;;;;;4.80;4.40;;;;;;;;;;5094920;28;20490;-58
2023/06/16 11:01:08;;;;;;;5.10;4.30;;;;;;;;;;5052260;28;20460;-58
2023/06/16 11:03:38;;;;;;;4.53;4.23;;;;;;;;;;5052798;28;20800;-58
2023/06/16 11:06:06;;;;;;;5.10;4.70;;;;;;;;;;5073568;28;20454;-58
2023/06/16 11:08:48;;;;;;;5.63;4.33;;;;;;;;;;5094595;28;21026;-58
2023/06/16 11:11:15;;;;;;;4.43;3.97;;;;;;;;;;5093911;28;20804;-58
2023/06/16 11:13:43;;;;;;;4.80;4.50;;;;;;;;;;5094117;28;20533;-57
2023/06/16 11:16:10;;;;;;;4.70;4.30;;;;;;;;;;5094551;28;20445;-57
2023/06/16 11:18:36;;;;;;;4.80;4.40;;;;;;;;;;5094500;28;20557;-58
2023/06/16 11:21:04;;;;;;;5.73;5.23;;;;;;;;;;5094455;28;20831;-58
2023/06/16 11:23:34;;;;;;;4.73;4.33;;;;;;;;;;5094611;28;20446;-58
2023/06/16 11:26:04;;;;;;;5.30;4.90;;;;;;;;;;5094364;28;20446;-57
2023/06/16 11:28:33;;;;;;;5.30;4.90;;;;;;;;;;5094348;28;20572;-58
2023/06/16 11:31:00;;;;;;;5.50;4.57;;;;;;;;;;5094353;28;20453;-58
2023/06/16 11:33:28;;;;;;;7.20;5.17;;;;;;;;;;5094276;28;20454;-58
2023/06/16 11:35:55;;;;;;;5.53;4.67;;;;;;;;;;5094132;28;20806;-58
2023/06/16 11:38:25;;;;;;;4.50;4.10;;;;;;;;;;5094072;28;20451;-58
2023/06/16 11:40:54;;;;;;;4.33;4.03;;;;;;;;;;5094212;28;20451;-58
2023/06/16 11:43:24;;;;;;;5.40;4.20;;;;;;;;;;5094176;28;20451;-58
2023/06/16 11:45:52;;;;;;;4.60;4.20;;;;;;;;;;5094021;28;20818;-58
2023/06/16 11:48:19;;;;;;;4.63;3.80;;;;;;;;;;5093846;28;20491;-58
2023/06/16 11:50:46;;;;;;;4.93;4.53;;;;;;;;;;5093874;28;20454;-59
2023/06/16 11:53:14;;;;;;;5.50;4.90;;;;;;;;;;5094324;28;20791;-58
2023/06/16 11:55:41;;;;;;;4.57;4.27;;;;;;;;;;5093841;28;20474;-59
2023/06/16 11:58:09;;;;;;;5.20;4.70;;;;;;;;;;5093743;28;20462;-58
2023/06/16 12:00:36;;;;;;;4.70;4.40;;;;;;;;;;5093699;28;20504;-58
2023/06/16 12:03:03;;;;;;;4.17;3.80;;;;;;;;;;5093621;28;20536;-58
2023/06/16 12:05:31;;;;;;;5.17;4.80;;;;;;;;;;5093358;28;20449;-58
2023/06/16 12:07:58;;;;;;;4.30;4.10;;;;;;;;;;5093468;28;20907;-58
2023/06/16 12:10:25;;;;;;;5.27;4.80;;;;;;;;;;5093559;28;20533;-58
2023/06/16 12:12:52;;;;;;;5.60;4.80;;;;;;;;;;5093631;28;20454;-58
2023/06/16 12:15:21;;;;;;;5.10;4.70;;;;;;;;;;5093440;28;20453;-57
2023/06/16 12:17:48;;;;;;;4.80;4.40;;;;;;;;;;5093312;28;20449;-58
2023/06/16 12:20:16;;;;;;;4.63;3.90;;;;;;;;;;5093194;28;20541;-58
2023/06/16 12:22:44;;;;;;;5.10;4.50;;;;;;;;;;5093084;28;20447;-60
2023/06/16 12:25:13;;;;;;;4.87;4.50;;;;;;;;;;5093324;28;20479;-58
2023/06/16 12:27:40;;;;;;;4.80;4.40;;;;;;;;;;5093168;28;20488;-58
2023/06/16 12:30:08;;;;;;;4.90;4.27;;;;;;;;;;5092982;28;21016;-58
2023/06/16 12:32:36;;;;;;;4.37;3.93;;;;;;;;;;5093124;28;20478;-58
2023/06/16 12:35:03;;;;;;;5.00;3.50;;;;;;;;;;5093342;28;20451;-58
2023/06/16 12:37:31;;;;;;;4.27;3.97;;;;;;;;;;5093311;28;20458;-58
2023/06/16 12:39:58;;;;;;;4.00;3.70;;;;;;;;;;5093115;28;20496;-58
2023/06/16 12:42:27;;;;;;;4.40;3.67;;;;;;;;;;5093076;28;20447;-58
2023/06/16 12:44:55;;;;;;;4.23;3.90;;;;;;;;;;5093008;28;20447;-58
2023/06/16 12:47:23;;;;;;;4.80;4.37;;;;;;;;;;5092913;28;20457;-58
2023/06/16 12:49:51;;;;;;;9.40;6.53;;;;;;;;;;5093070;28;20846;-59
2023/06/16 12:52:19;;;;;;;7.93;5.63;;;;;;;;;;5093278;28;20826;-58
2023/06/16 12:54:46;;;;;;;7.60;4.80;;;;;;;;;;5092754;28;20564;-58
2023/06/16 12:57:13;;;;;;;6.40;5.43;;;;;;;;;;5092869;28;20451;-57
2023/06/16 12:59:40;;;;;;;5.60;5.07;;;;;;;;;;5092747;28;20460;-58
2023/06/16 13:02:07;;;;;;;6.83;5.90;;;;;;;;;;5092999;28;20453;-57
2023/06/16 13:04:34;;;;;;;7.07;6.23;;;;;;;;;;5093068;28;20486;-58
2023/06/16 13:07:02;;;;;;;8.17;6.10;;;;;;;;;;5092890;28;20451;-57
2023/06/16 13:09:29;;;;;;;6.60;6.00;;;;;;;;;;5092809;28;20580;-57
2023/06/16 13:11:58;;;;;;;7.03;6.23;;;;;;;;;;5092828;28;20453;-57
2023/06/16 13:14:26;;;;;;;8.10;6.43;;;;;;;;;;5092905;28;20799;-57
2023/06/16 13:16:53;;;;;;;6.53;5.83;;;;;;;;;;5092632;28;20817;-57
2023/06/16 13:19:20;;;;;;;7.30;6.70;;;;;;;;;;5093023;28;20461;-57
2023/06/16 13:21:47;;;;;;;6.47;6.07;;;;;;;;;;5092565;28;20503;-57
2023/06/16 13:24:15;;;;;;;6.97;6.30;;;;;;;;;;5092603;28;20960;-57
2023/06/16 13:26:42;;;;;;;6.57;5.90;;;;;;;;;;5092571;28;20454;-57
2023/06/16 13:29:09;;;;;;;5.80;5.17;;;;;;;;;;5092713;28;20477;-57
2023/06/16 13:31:36;;;;;;;6.13;5.63;;;;;;;;;;5092598;28;20478;-57
2023/06/16 13:34:03;;;;;;;6.07;5.60;;;;;;;;;;5092702;28;20537;-57
2023/06/16 13:36:30;;;;;;;8.10;5.93;;;;;;;;;;5095705;28;20886;-57
2023/06/16 13:38:57;;;;;;;7.13;5.40;;;;;;;;;;5096330;28;20983;-57
2023/06/16 13:41:27;;;;;;;5.20;4.70;;;;;;;;;;5096322;28;20515;-56
2023/06/16 13:43:54;;;;;;;6.03;5.30;;;;;;;;;;5096469;28;20454;-57
2023/06/16 13:46:21;;;;;;;6.77;5.47;;;;;;;;;;5096374;28;20457;-57
2023/06/16 13:48:49;;;;;;;4.77;4.40;;;;;;;;;;5096083;28;21023;-57
2023/06/16 13:51:16;;;;;;;6.07;5.50;;;;;;;;;;5096061;28;20451;-57
2023/06/16 13:53:43;;;;;;;5.93;5.43;;;;;;;;;;5096012;28;20806;-57
2023/06/16 13:56:11;;;;;;;7.70;6.40;;;;;;;;;;5096033;28;20478;-57
2023/06/16 13:58:39;;;;;;;5.70;5.20;;;;;;;;;;5095947;28;20457;-57
2023/06/16 14:01:06;;;;;;;8.00;5.03;;;;;;;;;;5096012;28;20548;-57
2023/06/16 14:03:34;;;;;;;6.47;5.70;;;;;;;;;;5095888;28;20434;-57
2023/06/16 14:06:02;;;;;;;5.50;5.10;;;;;;;;;;5095828;28;20559;-57
2023/06/16 14:08:29;;;;;;;5.90;5.50;;;;;;;;;;5095728;28;20458;-57
2023/06/16 14:10:56;;;;;;;6.03;5.53;;;;;;;;;;5095921;28;20447;-57
2023/06/16 14:13:23;;;;;;;6.30;5.80;;;;;;;;;;5095894;28;20473;-57
2023/06/16 14:15:52;;;;;;;4.83;4.53;;;;;;;;;;5095774;28;20450;-57
2023/06/16 14:18:19;;;;;;;6.70;5.37;;;;;;;;;;5095690;28;20446;-57
2023/06/16 14:20:46;;;;;;;5.00;4.70;;;;;;;;;;5095611;28;20957;-58
2023/06/16 14:23:14;;;;;;;8.10;5.20;;;;;;;;;;5095508;28;20442;-57
2023/06/16 14:25:44;;;;;;;5.20;4.80;;;;;;;;;;5095622;28;20451;-57
2023/06/16 14:28:11;;;;;;;5.20;4.70;;;;;;;;;;5095542;28;20447;-57
2023/06/16 14:30:38;;;;;;;5.00;4.70;;;;;;;;;;5095261;28;20483;-57
2023/06/16 14:33:07;;;;;;;5.50;5.00;;;;;;;;;;5095269;28;20647;-57
2023/06/16 14:35:34;;;;;;;6.23;5.70;;;;;;;;;;5095156;28;21029;-57
2023/06/16 14:38:00;;;;;;;5.17;4.77;;;;;;;;;;5095259;28;20542;-57
2023/06/16 14:40:27;;;;;;;5.77;4.87;;;;;;;;;;5095351;28;20486;-57
2023/06/16 14:42:54;;;;;;;5.60;5.10;;;;;;;;;;5095147;28;20451;-57
2023/06/16 14:45:21;;;;;;;5.60;4.80;;;;;;;;;;5095286;28;20454;-57